メインページ
METAR-TAF:

METAR-TAF

空港 :

ジュリウス・ニエレレ国際空港

ダルエスサラーム, タンザニア

緯度: 06-52S, 経度: 039-12E, 海抜: 55m

現時点の気象観測

当レポートは1時間33分前の17:00(UTC)に作成
東/南東の風 6kt
気温 24°C
湿度 78%
気圧 1019 hPa
視程10km以上
高度1600ftの雲はほとんどない

METAR: HTDA 151700Z 11006KT 9999 FEW016 24/20 Q1019 NOSIG

時間: 21:33 (18:33 UTC)

予報

当レポートは1時間33分前の17:00(UTC)に作成
予報は15日の 18時(UTC)から 16日の 24時(UTC)まで有効
南東の風 5kt
視程10km以上
高度1200ftの雲はほとんどない
15日の 2200時(UTC)から
の風 kt
16日の 06時(UTC)から 16日の 09時(UTC)まで徐々に
の風 10kt
視程10km以上
高度2000ftの千切れ雲あり

TAF: HTDA 151700Z 1518/1624 13005KT 9999 FEW012 FM152200 00000KT BECMG 1606/1609 10010KT 9999 BKN020

4,000以上の空港の気象観測と天気予報(METAR報とTAF報)

利用可能な観測所は地図上に黄色い丸と赤い丸で示す。

丸の上にカーソルを重ねると観測所名を参照できる。

次にクリックすると気象観測と天気予報を参照できる。

マップの切り替え:黒色「×」印の緑ボタンをクリックして拡大、「-」印の緑ボタンをクリックして縮小、緑色の三角印をクリックして隣りの地図に切り替え


METAR-TAF: